createdAt,value
2023-10-02T00:00:22.250Z,0
2023-10-02T00:00:52.094Z,0
2023-10-02T00:01:25.093Z,0
2023-10-02T00:01:55.924Z,0
2023-10-02T00:03:33.023Z,0
2023-10-02T00:04:03.937Z,0
2023-10-02T00:04:37.109Z,0
2023-10-02T00:05:08.318Z,0
2023-10-02T00:05:40.823Z,0
2023-10-02T00:06:12.087Z,0
2023-10-02T00:06:44.593Z,0
2023-10-02T00:07:15.856Z,0
2023-10-02T00:07:48.996Z,0
2023-10-02T00:08:19.786Z,0
2023-10-02T00:08:52.792Z,0
2023-10-02T00:09:23.881Z,0
2023-10-02T00:09:56.832Z,0
2023-10-02T00:10:28.134Z,0
2023-10-02T00:11:00.849Z,0
2023-10-02T00:11:31.969Z,0
2023-10-02T00:12:04.834Z,0
2023-10-02T00:12:36.392Z,0
2023-10-02T00:13:08.700Z,0
2023-10-02T00:13:39.966Z,0
2023-10-02T00:14:12.881Z,0
2023-10-02T00:14:43.916Z,0
2023-10-02T00:15:18.012Z,0
2023-10-02T00:15:47.962Z,0
2023-10-02T00:16:20.723Z,0
2023-10-02T00:16:52.028Z,0
2023-10-02T00:17:24.888Z,0
2023-10-02T00:17:55.907Z,0
2023-10-02T00:18:28.916Z,0
2023-10-02T00:18:59.888Z,0
2023-10-02T00:19:32.694Z,0
2023-10-02T00:20:04.638Z,0
2023-10-02T00:20:38.046Z,0
2023-10-02T00:21:07.756Z,0
2023-10-02T00:21:40.746Z,0
2023-10-02T00:22:11.837Z,0
2023-10-02T00:22:44.938Z,0
2023-10-02T00:23:15.834Z,0
2023-10-02T00:23:48.895Z,0
2023-10-02T00:24:19.960Z,0
2023-10-02T00:24:52.815Z,0
2023-10-02T00:25:24.178Z,0
2023-10-02T00:25:56.946Z,0
2023-10-02T00:26:27.899Z,0
2023-10-02T00:27:00.922Z,0
2023-10-02T00:27:31.926Z,0
2023-10-02T00:28:04.724Z,0
2023-10-02T00:28:35.867Z,0
2023-10-02T00:29:08.720Z,0
2023-10-02T00:29:39.911Z,0
2023-10-02T00:30:13.683Z,0
2023-10-02T00:30:43.972Z,0
2023-10-02T00:31:16.851Z,0
2023-10-02T00:31:48.103Z,0
2023-10-02T00:32:21.139Z,0
2023-10-02T00:32:51.892Z,0
2023-10-02T00:33:24.756Z,0
2023-10-02T00:33:56.016Z,0
2023-10-02T00:34:28.837Z,0
2023-10-02T00:34:59.952Z,0
2023-10-02T00:35:34.126Z,0
2023-10-02T00:36:03.816Z,0
2023-10-02T00:36:37.031Z,0
2023-10-02T00:37:07.890Z,0
2023-10-02T00:37:40.857Z,0
2023-10-02T00:38:11.908Z,0
2023-10-02T00:38:44.883Z,0
2023-10-02T00:39:15.976Z,0
2023-10-02T00:39:48.775Z,0
2023-10-02T00:40:20.584Z,0
2023-10-02T00:40:52.816Z,0
2023-10-02T00:41:23.804Z,0
2023-10-02T00:41:56.820Z,0
2023-10-02T00:42:27.890Z,0
2023-10-02T00:43:01.104Z,0
2023-10-02T00:43:31.948Z,0
2023-10-02T00:44:04.767Z,0
2023-10-02T00:44:35.986Z,0
2023-10-02T00:45:11.024Z,0
2023-10-02T00:45:40.418Z,0
2023-10-02T00:46:12.862Z,0
2023-10-02T00:46:44.103Z,0
2023-10-02T00:47:16.834Z,0
2023-10-02T00:47:47.941Z,0
2023-10-02T00:48:21.051Z,0
2023-10-02T00:48:51.848Z,0
2023-10-02T00:49:24.803Z,0
2023-10-02T00:49:55.996Z,0
2023-10-02T00:50:29.187Z,0
2023-10-02T00:50:59.893Z,0
2023-10-02T00:51:32.917Z,0
2023-10-02T00:52:03.998Z,0
2023-10-02T00:52:36.738Z,0
2023-10-02T00:53:07.898Z,0
2023-10-02T00:53:41.279Z,0
2023-10-02T00:54:11.999Z,0
2023-10-02T00:54:44.813Z,0
2023-10-02T00:55:16.419Z,0
2023-10-02T00:55:49.011Z,0
2023-10-02T00:56:19.856Z,0
2023-10-02T00:56:52.838Z,0
2023-10-02T00:57:23.908Z,0
2023-10-02T00:57:57.011Z,0
2023-10-02T00:58:27.896Z,0
2023-10-02T00:59:01.228Z,0
2023-10-02T00:59:32.005Z,0
2023-10-02T01:00:06.315Z,0
2023-10-02T01:00:36.031Z,0
2023-10-02T01:01:08.955Z,0
2023-10-02T01:01:40.072Z,0
2023-10-02T01:02:12.974Z,0
2023-10-02T01:02:44.027Z,0
2023-10-02T01:03:16.841Z,0
2023-10-02T01:03:47.882Z,0
2023-10-02T01:04:20.821Z,0
2023-10-02T01:04:51.987Z,0
2023-10-02T01:05:25.312Z,0
2023-10-02T01:05:55.835Z,0
2023-10-02T01:06:28.795Z,0
2023-10-02T01:06:59.999Z,0
2023-10-02T01:07:32.747Z,0
2023-10-02T01:08:03.906Z,0
2023-10-02T01:08:37.188Z,0
2023-10-02T01:09:07.821Z,0
2023-10-02T01:09:40.904Z,0
2023-10-02T01:10:12.299Z,0
2023-10-02T01:10:45.055Z,0
2023-10-02T01:11:16.105Z,0
2023-10-02T01:11:48.745Z,0
2023-10-02T01:12:19.922Z,0
2023-10-02T01:12:52.900Z,0
2023-10-02T01:13:23.912Z,0
2023-10-02T01:13:56.907Z,0
2023-10-02T01:14:27.940Z,0
2023-10-02T01:15:02.140Z,0
2023-10-02T01:15:48.733Z,0
2023-10-02T01:16:05.167Z,0
2023-10-02T01:16:35.927Z,0
2023-10-02T01:17:09.015Z,0
2023-10-02T01:17:40.112Z,0
2023-10-02T01:18:12.819Z,0
2023-10-02T01:18:43.826Z,0
2023-10-02T01:19:16.890Z,0
2023-10-02T01:19:48.001Z,0
2023-10-02T01:20:21.042Z,0
2023-10-02T01:20:51.929Z,0
2023-10-02T01:21:24.808Z,0
2023-10-02T01:21:55.811Z,0
2023-10-02T01:22:29.041Z,0
2023-10-02T01:22:59.898Z,0
2023-10-02T01:23:32.977Z,0
2023-10-02T01:24:03.819Z,0
2023-10-02T01:24:37.024Z,0
2023-10-02T01:25:08.096Z,0
2023-10-02T01:25:40.869Z,0
2023-10-02T01:26:11.990Z,0
2023-10-02T01:26:44.992Z,0
2023-10-02T01:27:15.947Z,0
2023-10-02T01:27:49.366Z,0
2023-10-02T01:28:19.859Z,0
2023-10-02T01:28:53.115Z,0
2023-10-02T01:29:23.765Z,0
2023-10-02T01:29:56.812Z,0
2023-10-02T01:30:29.599Z,0
2023-10-02T01:31:01.197Z,0
2023-10-02T01:31:31.889Z,0
2023-10-02T01:32:04.891Z,0
2023-10-02T01:32:35.985Z,0
2023-10-02T01:33:08.965Z,0
2023-10-02T01:33:39.865Z,0
2023-10-02T01:34:12.821Z,0
2023-10-02T01:34:43.976Z,0
2023-10-02T01:35:17.154Z,0
2023-10-02T01:35:48.064Z,0
2023-10-02T01:36:20.957Z,0
2023-10-02T01:36:51.816Z,0
2023-10-02T01:37:24.804Z,0
2023-10-02T01:37:55.958Z,0
2023-10-02T01:38:28.814Z,0
2023-10-02T01:38:59.818Z,0
2023-10-02T01:39:32.891Z,0
2023-10-02T01:40:05.438Z,0
2023-10-02T01:40:36.664Z,0
2023-10-02T01:41:08.096Z,0
2023-10-02T01:41:40.929Z,0
2023-10-02T01:42:11.802Z,0
2023-10-02T01:42:44.952Z,0
2023-10-02T01:43:15.981Z,0
2023-10-02T01:43:48.872Z,0
2023-10-02T01:44:19.952Z,0
2023-10-02T01:44:52.714Z,0
2023-10-02T01:45:25.285Z,0
2023-10-02T01:45:57.043Z,0
2023-10-02T01:46:27.874Z,0
2023-10-02T01:47:00.878Z,0
2023-10-02T01:47:32.060Z,0
2023-10-02T01:48:04.981Z,0
2023-10-02T01:48:36.089Z,0
2023-10-02T01:49:08.917Z,0
2023-10-02T01:49:39.881Z,0
2023-10-02T01:50:13.740Z,0
2023-10-02T01:50:44.029Z,0
2023-10-02T01:51:17.352Z,0
2023-10-02T01:51:48.003Z,0
2023-10-02T01:52:21.025Z,0
2023-10-02T01:52:52.754Z,0
2023-10-02T01:53:24.660Z,0
2023-10-02T01:53:56.016Z,0
2023-10-02T01:54:28.745Z,0
2023-10-02T01:54:59.940Z,0
2023-10-02T01:55:33.202Z,0
2023-10-02T01:56:04.028Z,0
2023-10-02T01:56:37.886Z,0
2023-10-02T01:57:07.805Z,0
2023-10-02T01:57:40.993Z,0
2023-10-02T01:58:11.977Z,0
2023-10-02T01:58:45.029Z,0
2023-10-02T01:59:16.035Z,0
2023-10-02T01:59:49.077Z,0
2023-10-02T02:00:21.746Z,0
2023-10-02T02:00:52.975Z,0
2023-10-02T02:01:23.857Z,0
2023-10-02T02:01:56.893Z,0
2023-10-02T02:02:28.238Z,0
2023-10-02T02:03:01.376Z,0
2023-10-02T02:03:32.106Z,0
2023-10-02T02:04:04.775Z,0
2023-10-02T02:04:35.934Z,0
2023-10-02T02:05:09.043Z,0
2023-10-02T02:05:39.976Z,0
2023-10-02T02:06:13.091Z,0
2023-10-02T02:06:43.885Z,0
2023-10-02T02:07:16.980Z,0
2023-10-02T02:07:47.944Z,0
2023-10-02T02:08:20.746Z,0
2023-10-02T02:08:51.889Z,0
2023-10-02T02:09:25.003Z,0
2023-10-02T02:09:55.820Z,0
2023-10-02T02:10:29.031Z,0
2023-10-02T02:10:59.957Z,0
2023-10-02T02:11:32.800Z,0
2023-10-02T02:12:03.823Z,0
2023-10-02T02:12:37.669Z,0
2023-10-02T02:13:07.990Z,0
2023-10-02T02:13:40.702Z,0
2023-10-02T02:14:11.884Z,0
2023-10-02T02:14:44.840Z,0
2023-10-02T02:15:17.302Z,0
2023-10-02T02:16:03.826Z,0
2023-10-02T02:16:20.918Z,0
2023-10-02T02:16:52.085Z,0
2023-10-02T02:17:26.697Z,0
2023-10-02T02:17:55.913Z,0
2023-10-02T02:18:28.974Z,0
2023-10-02T02:19:00.021Z,0
2023-10-02T02:19:33.768Z,0
2023-10-02T02:20:04.271Z,0
2023-10-02T02:20:37.029Z,0
2023-10-02T02:21:07.872Z,0
2023-10-02T02:21:40.993Z,0
2023-10-02T02:22:12.017Z,0
2023-10-02T02:22:44.997Z,0
2023-10-02T02:23:15.949Z,0
2023-10-02T02:23:32.148Z,0
2023-10-02T02:24:03.915Z,0
2023-10-02T02:24:36.049Z,0
2023-10-02T02:25:09.297Z,0
2023-10-02T02:25:39.911Z,0
2023-10-02T02:26:12.890Z,0
2023-10-02T02:26:43.944Z,0
2023-10-02T02:27:16.769Z,0
2023-10-02T02:27:47.831Z,0
2023-10-02T02:28:20.976Z,0
2023-10-02T02:28:51.989Z,0
2023-10-02T02:29:25.364Z,0
2023-10-02T02:29:56.184Z,0
2023-10-02T02:30:30.564Z,0
2023-10-02T02:31:00.007Z,0
2023-10-02T02:31:33.178Z,0
2023-10-02T02:32:03.970Z,0
2023-10-02T02:32:37.483Z,0
2023-10-02T02:33:07.935Z,0
2023-10-02T02:33:40.911Z,0
2023-10-02T02:34:11.956Z,0
2023-10-02T02:34:44.780Z,0
2023-10-02T02:35:16.642Z,0
2023-10-02T02:35:48.962Z,0
2023-10-02T02:36:19.972Z,0
2023-10-02T02:36:52.785Z,0
2023-10-02T02:37:23.933Z,0
2023-10-02T02:37:57.173Z,0
2023-10-02T02:38:27.812Z,0
2023-10-02T02:39:00.892Z,0
2023-10-02T02:39:31.981Z,0
2023-10-02T02:40:06.046Z,0
2023-10-02T02:40:35.983Z,0
2023-10-02T02:41:14.919Z,0
2023-10-02T02:41:40.057Z,0
2023-10-02T02:42:11.895Z,0
2023-10-02T02:42:45.083Z,0
2023-10-02T02:43:16.001Z,0
2023-10-02T02:43:48.634Z,0
2023-10-02T02:44:19.895Z,0
2023-10-02T02:44:52.923Z,0
2023-10-02T02:45:25.506Z,0
2023-10-02T02:45:57.115Z,0
2023-10-02T02:46:27.982Z,0
2023-10-02T02:47:01.160Z,0
2023-10-02T02:47:31.988Z,0
2023-10-02T02:48:10.219Z,0
2023-10-02T02:48:35.984Z,0
2023-10-02T02:49:08.002Z,0
2023-10-02T02:49:39.910Z,0
2023-10-02T02:50:12.293Z,0
2023-10-02T02:50:43.972Z,0
2023-10-02T02:51:15.917Z,0
2023-10-02T02:51:48.920Z,0
2023-10-02T02:52:19.981Z,0
2023-10-02T02:52:53.050Z,0
2023-10-02T02:53:24.811Z,0
2023-10-02T02:53:56.975Z,0
2023-10-02T02:54:27.976Z,0
2023-10-02T02:55:02.332Z,0
2023-10-02T02:55:31.990Z,0
2023-10-02T02:56:04.937Z,0
2023-10-02T02:56:36.043Z,0
2023-10-02T02:57:08.898Z,0
2023-10-02T02:57:39.890Z,0
2023-10-02T02:58:12.884Z,0
2023-10-02T02:58:43.896Z,0
2023-10-02T02:59:17.013Z,0
2023-10-02T02:59:47.984Z,0
2023-10-02T03:00:21.886Z,0
2023-10-02T03:00:52.023Z,0
2023-10-02T03:01:31.112Z,0
2023-10-02T03:01:56.144Z,0
2023-10-02T03:02:28.001Z,0
2023-10-02T03:03:01.075Z,0
2023-10-02T03:03:32.114Z,0
2023-10-02T03:04:06.894Z,0
2023-10-02T03:04:35.890Z,0
2023-10-02T03:05:09.506Z,0
2023-10-02T03:05:39.989Z,0
2023-10-02T03:06:12.871Z,0
2023-10-02T03:06:43.975Z,0
2023-10-02T03:07:17.109Z,0
2023-10-02T03:07:47.919Z,0
2023-10-02T03:08:20.660Z,0
2023-10-02T03:08:52.073Z,0
2023-10-02T03:09:25.187Z,0
2023-10-02T03:09:55.975Z,0
2023-10-02T03:10:29.474Z,0
2023-10-02T03:11:00.056Z,0
2023-10-02T03:11:32.786Z,0
2023-10-02T03:12:03.959Z,0
2023-10-02T03:12:37.256Z,0
2023-10-02T03:13:08.028Z,0
2023-10-02T03:13:41.038Z,0
2023-10-02T03:14:12.083Z,0
2023-10-02T03:14:44.896Z,0
2023-10-02T03:15:17.275Z,0
2023-10-02T03:15:49.017Z,0
2023-10-02T03:16:20.120Z,0
2023-10-02T03:16:54.831Z,0
2023-10-02T03:17:23.953Z,0
2023-10-02T03:17:57.027Z,0
2023-10-02T03:18:28.005Z,0
2023-10-02T03:19:01.025Z,0
2023-10-02T03:19:31.915Z,0
2023-10-02T03:20:05.786Z,0
2023-10-02T03:20:35.789Z,0
2023-10-02T03:21:08.911Z,0
2023-10-02T03:21:39.941Z,0
2023-10-02T03:22:13.022Z,0
2023-10-02T03:22:43.906Z,0
2023-10-02T03:23:16.758Z,0
2023-10-02T03:23:47.928Z,0
2023-10-02T03:24:21.249Z,0
2023-10-02T03:24:51.920Z,0
2023-10-02T03:25:25.626Z,0
2023-10-02T03:25:56.017Z,0
2023-10-02T03:26:29.374Z,0
2023-10-02T03:26:59.980Z,0
2023-10-02T03:27:33.066Z,0
2023-10-02T03:28:03.850Z,0
2023-10-02T03:28:38.010Z,0
2023-10-02T03:29:08.046Z,0
2023-10-02T03:29:41.001Z,0
2023-10-02T03:30:13.056Z,0
2023-10-02T03:30:44.861Z,0
2023-10-02T03:31:15.995Z,0
2023-10-02T03:31:48.830Z,0
2023-10-02T03:32:19.873Z,0
2023-10-02T03:32:52.913Z,0
2023-10-02T03:33:24.150Z,0
2023-10-02T03:33:56.849Z,0
2023-10-02T03:34:27.885Z,0
2023-10-02T03:35:02.130Z,0
2023-10-02T03:35:31.832Z,0
2023-10-02T03:36:04.901Z,0
2023-10-02T03:36:36.048Z,0
2023-10-02T03:37:09.008Z,0
2023-10-02T03:37:39.889Z,0
2023-10-02T03:38:12.904Z,0
2023-10-02T03:38:44.007Z,0
2023-10-02T03:39:16.835Z,0
2023-10-02T03:39:47.929Z,0
2023-10-02T03:40:22.055Z,0
2023-10-02T03:40:51.980Z,0
2023-10-02T03:41:24.897Z,0
2023-10-02T03:41:55.957Z,0
2023-10-02T03:42:30.027Z,0
2023-10-02T03:42:59.946Z,0
2023-10-02T03:43:33.789Z,0
2023-10-02T03:44:04.303Z,0
2023-10-02T03:44:36.939Z,0
2023-10-02T03:45:09.152Z,0
2023-10-02T03:45:41.301Z,0
2023-10-02T03:46:11.955Z,0
2023-10-02T03:46:44.933Z,0
2023-10-02T03:47:16.070Z,0
2023-10-02T03:47:49.121Z,0
2023-10-02T03:48:19.888Z,0
2023-10-02T03:48:53.192Z,0
2023-10-02T03:49:24.033Z,0
2023-10-02T03:49:56.733Z,0
2023-10-02T03:50:28.536Z,0
2023-10-02T03:51:00.938Z,0
2023-10-02T03:51:32.026Z,0
2023-10-02T03:52:04.962Z,0
2023-10-02T03:52:36.421Z,0
2023-10-02T03:53:08.927Z,0
2023-10-02T03:53:39.796Z,0
2023-10-02T03:54:12.812Z,0
2023-10-02T03:54:43.940Z,0
2023-10-02T03:55:18.207Z,0
2023-10-02T03:55:47.830Z,0
2023-10-02T03:56:20.747Z,0
2023-10-02T03:56:52.140Z,0
2023-10-02T03:57:24.831Z,0
2023-10-02T03:57:55.846Z,0
2023-10-02T03:58:28.863Z,0
2023-10-02T03:59:00.105Z,0
2023-10-02T03:59:32.763Z,0
2023-10-02T04:00:05.580Z,0
2023-10-02T04:00:37.213Z,0
2023-10-02T04:01:07.894Z,0
2023-10-02T04:01:40.915Z,0
2023-10-02T04:02:12.024Z,0
2023-10-02T04:02:47.014Z,0
2023-10-02T04:03:16.121Z,0
2023-10-02T04:03:48.939Z,0
2023-10-02T04:04:20.023Z,0
2023-10-02T04:04:52.978Z,0
2023-10-02T04:05:24.456Z,0
2023-10-02T04:05:56.697Z,0
2023-10-02T04:06:27.860Z,0
2023-10-02T04:07:00.791Z,0
2023-10-02T04:07:32.115Z,0
2023-10-02T04:08:05.907Z,0
2023-10-02T04:08:35.921Z,0
2023-10-02T04:09:08.956Z,0
2023-10-02T04:09:40.048Z,0
2023-10-02T04:10:15.895Z,0
2023-10-02T04:10:43.979Z,0
2023-10-02T04:11:16.963Z,0
2023-10-02T04:11:47.993Z,0
2023-10-02T04:12:20.904Z,0
2023-10-02T04:12:52.113Z,0
2023-10-02T04:13:25.016Z,0
2023-10-02T04:13:55.948Z,0
2023-10-02T04:14:28.886Z,0
2023-10-02T04:15:00.163Z,0
2023-10-02T04:15:33.977Z,0
2023-10-02T04:16:03.964Z,0
2023-10-02T04:16:37.157Z,0
2023-10-02T04:17:07.972Z,0
2023-10-02T04:17:40.983Z,0
2023-10-02T04:18:11.909Z,0
2023-10-02T04:18:44.844Z,0
2023-10-02T04:19:15.875Z,0
2023-10-02T04:19:32.163Z,0
2023-10-02T04:20:04.781Z,0
2023-10-02T04:20:35.952Z,0
2023-10-02T04:21:08.088Z,0
2023-10-02T04:21:40.120Z,0
2023-10-02T04:22:11.959Z,0
2023-10-02T04:22:43.995Z,0
2023-10-02T04:23:16.096Z,0
2023-10-02T04:23:47.937Z,0
2023-10-02T04:24:20.969Z,0
2023-10-02T04:24:52.044Z,0
2023-10-02T04:25:25.096Z,0
2023-10-02T04:25:55.950Z,0
2023-10-02T04:26:28.898Z,0
2023-10-02T04:27:00.042Z,0
2023-10-02T04:27:33.017Z,0
2023-10-02T04:28:03.901Z,0
2023-10-02T04:28:37.209Z,0
2023-10-02T04:29:08.094Z,0
2023-10-02T04:29:40.998Z,0
2023-10-02T04:30:13.253Z,0
2023-10-02T04:30:45.143Z,0
2023-10-02T04:31:16.006Z,0
2023-10-02T04:31:54.321Z,0
2023-10-02T04:32:20.150Z,0
2023-10-02T04:32:52.072Z,0
2023-10-02T04:33:24.798Z,0
2023-10-02T04:33:55.998Z,0
2023-10-02T04:34:28.959Z,0
2023-10-02T04:34:59.941Z,0
2023-10-02T04:35:33.105Z,0
2023-10-02T04:36:04.028Z,0
2023-10-02T04:36:37.039Z,0
2023-10-02T04:37:07.978Z,0
2023-10-02T04:37:40.888Z,0
2023-10-02T04:38:12.107Z,0
2023-10-02T04:38:44.673Z,0
2023-10-02T04:39:15.868Z,0
2023-10-02T04:39:48.853Z,0
2023-10-02T04:40:21.330Z,0
2023-10-02T04:40:52.899Z,0
2023-10-02T04:41:24.002Z,0
2023-10-02T04:41:57.042Z,0
2023-10-02T04:42:27.960Z,0
2023-10-02T04:43:00.905Z,0
2023-10-02T04:43:32.071Z,0
2023-10-02T04:44:04.837Z,0
2023-10-02T04:44:35.887Z,0
2023-10-02T04:45:10.448Z,0
2023-10-02T04:45:40.235Z,0
2023-10-02T04:46:16.063Z,0
2023-10-02T04:46:43.998Z,0
2023-10-02T04:47:16.993Z,0
2023-10-02T04:47:47.964Z,0
2023-10-02T04:48:20.879Z,0
2023-10-02T04:48:51.968Z,0
2023-10-02T04:49:24.890Z,0
2023-10-02T04:49:55.931Z,0
2023-10-02T04:50:29.477Z,0
2023-10-02T04:51:00.022Z,0
2023-10-02T04:51:32.697Z,0
2023-10-02T04:52:03.936Z,0
2023-10-02T04:52:37.248Z,0
2023-10-02T04:53:08.097Z,0
2023-10-02T04:53:40.858Z,0
2023-10-02T04:54:13.890Z,0
2023-10-02T04:54:45.031Z,0
2023-10-02T04:55:16.320Z,0
2023-10-02T04:55:49.055Z,0
2023-10-02T04:56:20.111Z,0
2023-10-02T04:56:52.852Z,0
2023-10-02T04:57:23.942Z,0
2023-10-02T04:57:59.015Z,0
2023-10-02T04:58:28.086Z,0
2023-10-02T04:59:01.001Z,0
2023-10-02T04:59:31.986Z,0
2023-10-02T05:00:08.169Z,0
2023-10-02T05:00:36.207Z,0
2023-10-02T05:01:08.902Z,0
2023-10-02T05:01:40.114Z,0
2023-10-02T05:02:13.331Z,0
2023-10-02T05:02:43.927Z,0
2023-10-02T05:03:16.973Z,0
2023-10-02T05:03:48.025Z,0
2023-10-02T05:04:20.961Z,0
2023-10-02T05:04:52.020Z,0
2023-10-02T05:05:27.158Z,0
2023-10-02T05:05:56.046Z,0
2023-10-02T05:06:28.834Z,0
2023-10-02T05:06:59.960Z,0
2023-10-02T05:07:33.101Z,0
2023-10-02T05:08:04.222Z,0
2023-10-02T05:08:37.253Z,0
2023-10-02T05:09:08.056Z,0
2023-10-02T05:09:40.963Z,0
2023-10-02T05:10:12.258Z,0
2023-10-02T05:10:45.068Z,0
2023-10-02T05:11:16.073Z,0
2023-10-02T05:11:48.832Z,0
2023-10-02T05:12:19.936Z,0
2023-10-02T05:12:53.094Z,0
2023-10-02T05:13:24.051Z,0
2023-10-02T05:13:56.908Z,0
2023-10-02T05:14:28.370Z,0
2023-10-02T05:15:02.437Z,0
2023-10-02T05:15:32.328Z,0
2023-10-02T05:16:05.077Z,0
2023-10-02T05:16:36.380Z,0
2023-10-02T05:17:09.361Z,0
2023-10-02T05:17:40.828Z,0
2023-10-02T05:18:12.986Z,0
2023-10-02T05:18:44.231Z,0
2023-10-02T05:19:17.277Z,0
2023-10-02T05:19:48.285Z,0
2023-10-02T05:20:05.223Z,0
2023-10-02T05:20:36.156Z,0
2023-10-02T05:21:08.305Z,0
2023-10-02T05:21:40.493Z,0
2023-10-02T05:22:12.080Z,0
2023-10-02T05:22:45.263Z,0
2023-10-02T05:23:16.224Z,0
2023-10-02T05:23:50.035Z,0
2023-10-02T05:24:20.326Z,0
2023-10-02T05:24:53.286Z,0
2023-10-02T05:25:24.773Z,0
2023-10-02T05:25:57.041Z,0
2023-10-02T05:26:28.232Z,0
2023-10-02T05:27:01.229Z,0
2023-10-02T05:27:35.104Z,0
2023-10-02T05:28:05.933Z,0
2023-10-02T05:28:36.291Z,0
2023-10-02T05:29:10.649Z,0
2023-10-02T05:29:40.128Z,0
2023-10-02T05:30:14.960Z,0
2023-10-02T05:30:44.411Z,0
2023-10-02T05:31:17.328Z,0
2023-10-02T05:31:48.306Z,0
2023-10-02T05:32:04.432Z,0
2023-10-02T05:32:36.224Z,0
2023-10-02T05:33:08.302Z,0
2023-10-02T05:33:40.299Z,0
2023-10-02T05:34:12.285Z,0
2023-10-02T05:34:44.204Z,0
2023-10-02T05:35:16.657Z,0
2023-10-02T05:35:48.269Z,0
2023-10-02T05:36:20.196Z,0
2023-10-02T05:36:53.150Z,0
2023-10-02T05:37:24.274Z,0
2023-10-02T05:37:57.100Z,0
2023-10-02T05:38:28.226Z,0
2023-10-02T05:39:01.255Z,0
2023-10-02T05:39:32.509Z,0
2023-10-02T05:40:06.094Z,0
2023-10-02T05:40:36.270Z,0
2023-10-02T05:41:09.325Z,0
2023-10-02T05:41:40.166Z,0
2023-10-02T05:42:13.476Z,0
2023-10-02T05:42:44.423Z,0
2023-10-02T05:43:17.195Z,0
2023-10-02T05:43:48.217Z,0
2023-10-02T05:44:04.547Z,0
2023-10-02T05:44:36.171Z,0
2023-10-02T05:45:09.938Z,0
2023-10-02T05:45:40.654Z,0
2023-10-02T05:46:12.309Z,0
2023-10-02T05:46:45.150Z,0
2023-10-02T05:47:16.369Z,0
2023-10-02T05:47:49.250Z,0
2023-10-02T05:48:20.227Z,0
2023-10-02T05:48:53.068Z,0
2023-10-02T05:49:24.316Z,0
2023-10-02T05:49:57.202Z,0
2023-10-02T05:50:28.670Z,0
2023-10-02T05:51:01.253Z,0
2023-10-02T05:51:32.198Z,0
2023-10-02T05:52:05.106Z,0
2023-10-02T05:52:36.376Z,0
2023-10-02T05:53:09.320Z,0
2023-10-02T05:53:40.196Z,0
2023-10-02T05:54:17.998Z,0
2023-10-02T05:54:44.228Z,0
2023-10-02T05:55:16.880Z,0
2023-10-02T05:55:48.957Z,0
2023-10-02T05:56:20.266Z,0
2023-10-02T05:56:53.971Z,0
2023-10-02T05:57:24.386Z,0
2023-10-02T05:57:57.294Z,0
2023-10-02T05:58:28.295Z,0
2023-10-02T05:59:02.373Z,0
2023-10-02T05:59:32.232Z,0
2023-10-02T06:00:06.760Z,0
2023-10-02T06:00:36.440Z,0
2023-10-02T06:01:08.876Z,0
2023-10-02T06:01:40.312Z,0
2023-10-02T06:02:13.227Z,0
2023-10-02T06:02:44.416Z,0
2023-10-02T06:03:17.319Z,0
2023-10-02T06:03:48.249Z,0
2023-10-02T06:04:21.219Z,0
2023-10-02T06:04:52.279Z,0
2023-10-02T06:05:26.027Z,0
2023-10-02T06:06:01.686Z,0
2023-10-02T06:06:29.523Z,0
2023-10-02T06:07:00.272Z,0
2023-10-02T06:07:33.206Z,0
2023-10-02T06:08:04.353Z,0
2023-10-02T06:08:37.377Z,0
2023-10-02T06:09:08.176Z,0
2023-10-02T06:09:41.322Z,0
2023-10-02T06:10:13.038Z,0
2023-10-02T06:10:45.180Z,0
2023-10-02T06:11:16.425Z,0
2023-10-02T06:11:49.070Z,0
2023-10-02T06:12:20.165Z,0
2023-10-02T06:12:54.180Z,0
2023-10-02T06:13:24.230Z,0
2023-10-02T06:13:57.066Z,0
2023-10-02T06:14:28.366Z,0
2023-10-02T06:15:03.112Z,0
2023-10-02T06:15:32.422Z,0
2023-10-02T06:16:05.201Z,0
2023-10-02T06:16:36.206Z,0
2023-10-02T06:17:09.300Z,0
2023-10-02T06:17:40.181Z,0
2023-10-02T06:18:13.150Z,0
2023-10-02T06:18:44.279Z,0
2023-10-02T06:19:18.002Z,0
2023-10-02T06:19:48.200Z,0
2023-10-02T06:20:21.570Z,0
2023-10-02T06:20:52.313Z,0
2023-10-02T06:21:24.977Z,0
2023-10-02T06:21:56.131Z,0
2023-10-02T06:22:29.201Z,0
2023-10-02T06:23:00.427Z,0
2023-10-02T06:23:33.140Z,0
2023-10-02T06:24:04.219Z,0
2023-10-02T06:24:37.571Z,0
2023-10-02T06:25:08.470Z,0
2023-10-02T06:25:41.735Z,0
2023-10-02T06:26:12.313Z,0
2023-10-02T06:26:45.298Z,0
2023-10-02T06:27:16.170Z,0
2023-10-02T06:27:50.017Z,0
2023-10-02T06:28:20.268Z,0
2023-10-02T06:28:53.348Z,0
2023-10-02T06:29:24.575Z,0
2023-10-02T06:29:57.058Z,0
2023-10-02T06:30:29.670Z,0
2023-10-02T06:31:01.135Z,0
2023-10-02T06:31:32.237Z,0
2023-10-02T06:32:05.491Z,0
2023-10-02T06:32:36.273Z,0
2023-10-02T06:33:09.013Z,0
2023-10-02T06:33:40.304Z,0
2023-10-02T06:34:13.317Z,0
2023-10-02T06:34:44.336Z,0
2023-10-02T06:35:18.188Z,0
2023-10-02T06:35:48.496Z,0
2023-10-02T06:36:21.105Z,0
2023-10-02T06:36:52.444Z,0
2023-10-02T06:37:27.148Z,0
2023-10-02T06:37:56.411Z,0
2023-10-02T06:38:29.082Z,0
2023-10-02T06:39:00.586Z,0
2023-10-02T06:39:33.102Z,0
2023-10-02T06:40:04.963Z,0
2023-10-02T06:40:37.482Z,0
2023-10-02T06:41:08.353Z,0
2023-10-02T06:41:41.259Z,.64
2023-10-02T06:42:12.232Z,.64
2023-10-02T06:42:45.334Z,.64
2023-10-02T06:43:16.328Z,1.12
2023-10-02T06:43:49.042Z,1.12
2023-10-02T06:44:20.299Z,1.12
2023-10-02T06:44:53.322Z,1.12
2023-10-02T06:45:25.257Z,1.12
2023-10-02T06:45:57.410Z,1.12
2023-10-02T06:46:28.450Z,1.12
2023-10-02T06:47:01.040Z,1.44
2023-10-02T06:47:32.552Z,1.44
2023-10-02T06:48:05.171Z,1.44
2023-10-02T06:48:36.478Z,1.44
2023-10-02T06:49:09.177Z,1.44
2023-10-02T06:49:40.256Z,1.44
2023-10-02T06:50:14.636Z,1.44
2023-10-02T06:50:44.212Z,1.44
2023-10-02T06:51:16.895Z,1.44
2023-10-02T06:51:48.298Z,1.44
2023-10-02T06:52:22.132Z,1.44
2023-10-02T06:52:52.465Z,1.44
2023-10-02T06:53:25.367Z,1.44
2023-10-02T06:53:56.188Z,1.77
2023-10-02T06:54:29.145Z,1.77
2023-10-02T06:55:00.958Z,1.77
2023-10-02T06:55:34.229Z,1.77
2023-10-02T06:56:04.261Z,1.77
2023-10-02T06:56:37.296Z,1.77
2023-10-02T06:57:08.349Z,1.77
2023-10-02T06:57:41.188Z,1.77
2023-10-02T06:58:12.324Z,1.44
2023-10-02T06:58:45.161Z,1.44
2023-10-02T06:59:16.239Z,1.44
2023-10-02T06:59:49.174Z,1.44
2023-10-02T07:00:21.490Z,1.44
2023-10-02T07:00:53.217Z,1.44
2023-10-02T07:01:24.169Z,1.44
2023-10-02T07:01:57.084Z,1.44
2023-10-02T07:02:28.766Z,1.44
2023-10-02T07:03:01.476Z,1.44
2023-10-02T07:03:32.281Z,1.44
2023-10-02T07:04:05.216Z,1.44
2023-10-02T07:04:36.233Z,1.44
2023-10-02T07:05:10.534Z,1.12
2023-10-02T07:05:40.306Z,1.12
2023-10-02T07:06:13.337Z,1.12
2023-10-02T07:06:44.464Z,.32
2023-10-02T07:07:17.506Z,.32
2023-10-02T07:07:48.658Z,.32
2023-10-02T07:08:21.577Z,1.12
2023-10-02T07:08:52.633Z,1.12
2023-10-02T07:09:25.516Z,.64
2023-10-02T07:09:56.479Z,.64
2023-10-02T07:10:30.461Z,.32
2023-10-02T07:11:00.743Z,.32
2023-10-02T07:11:33.474Z,.32
2023-10-02T07:12:04.631Z,0
2023-10-02T07:12:38.814Z,0
2023-10-02T07:13:08.659Z,0
2023-10-02T07:13:41.757Z,0
2023-10-02T07:14:12.731Z,0
2023-10-02T07:14:45.774Z,0
2023-10-02T07:15:17.579Z,.32
2023-10-02T07:15:49.747Z,.64
2023-10-02T07:16:20.601Z,.64
2023-10-02T07:16:55.391Z,1.12
2023-10-02T07:17:24.551Z,1.12
2023-10-02T07:17:57.901Z,1.12
2023-10-02T07:18:28.721Z,1.12
2023-10-02T07:19:01.786Z,1.12
2023-10-02T07:19:32.578Z,1.12
2023-10-02T07:20:06.269Z,1.12
2023-10-02T07:20:36.596Z,1.12
2023-10-02T07:21:09.476Z,1.12
2023-10-02T07:21:40.653Z,1.12
2023-10-02T07:22:13.911Z,1.12
2023-10-02T07:22:44.596Z,1.12
2023-10-02T07:23:24.600Z,1.12
2023-10-02T07:23:48.808Z,1.12
2023-10-02T07:24:20.637Z,1.12
2023-10-02T07:24:53.799Z,1.12
2023-10-02T07:25:25.164Z,1.12
2023-10-02T07:25:57.544Z,1.12
2023-10-02T07:26:28.636Z,1.12
2023-10-02T07:27:01.569Z,1.12
2023-10-02T07:27:32.723Z,1.12
2023-10-02T07:28:05.679Z,1.77
2023-10-02T07:28:36.660Z,1.77
2023-10-02T07:29:09.508Z,1.77
2023-10-02T07:29:40.827Z,2.09
2023-10-02T07:30:16.062Z,2.09
2023-10-02T07:30:44.799Z,2.09
2023-10-02T07:31:17.866Z,2.09
2023-10-02T07:31:48.765Z,2.09
2023-10-02T07:32:04.998Z,2.09
2023-10-02T07:32:36.750Z,2.57
2023-10-02T07:33:08.666Z,2.89
2023-10-02T07:33:40.698Z,2.89
2023-10-02T07:34:13.768Z,2.89
2023-10-02T07:34:45.470Z,2.89
2023-10-02T07:35:17.012Z,2.89
2023-10-02T07:35:49.758Z,3.54
2023-10-02T07:36:20.578Z,3.54
2023-10-02T07:36:53.616Z,3.54
2023-10-02T07:37:24.738Z,3.54
2023-10-02T07:37:57.517Z,3.54
2023-10-02T07:38:28.738Z,3.54
2023-10-02T07:39:01.892Z,3.54
2023-10-02T07:39:32.535Z,3.54
2023-10-02T07:40:05.816Z,4.02
2023-10-02T07:40:36.736Z,4.34
2023-10-02T07:41:09.720Z,4.34
2023-10-02T07:41:40.522Z,4.66
2023-10-02T07:42:13.598Z,4.66
2023-10-02T07:42:44.615Z,4.66
2023-10-02T07:43:17.517Z,4.66
2023-10-02T07:43:48.635Z,4.66
2023-10-02T07:44:21.610Z,4.66
2023-10-02T07:44:52.676Z,4.66
2023-10-02T07:45:27.389Z,4.66
2023-10-02T07:45:56.903Z,4.34